SAME/MDZ METAR and TAF weather

Enter ICAO airport designator
Station Type Date Time Source
SAME METAR 2019/02/18 04:00 UTC NOAA

SAME 180400Z 05006KT CAVOK 27/12 Q1008


Station Type Date Time Source
SAME Decoded METAR 2019/02/18 04:00 UTC NOAA

Mendoza Aerodrome, Argentina (SAME) 32-50S 068-47W 704M
Feb 17, 2019 - 11:00 PM EST / 2019.02.18 0400 UTC
Wind: from the NE (050 degrees) at 7 MPH (6 KT):0
Visibility: greater than 7 mile(s):0
Temperature: 80 F (27 C)
Dew Point: 53 F (12 C)
Relative Humidity: 39%
Pressure (altimeter): 29.77 in. Hg (1008 hPa)
ob: SAME 180400Z 05006KT CAVOK 27/12 Q1008
cycle: 4

Station Type Date Time Source
SAME TAF 2019/02/18 00:00 UTC NOAA

TAF SAME 172300Z 1800/1824 05010KT CAVOK TX36/1820Z TN22/1810Z


Example: see airport list